Roosevelt Island, New York
Current Conditions -  °F | °C
As of 11:51 AM on Saturday 22 Nov 2014 (Local Time) from KNYC Reporting Station
Clear Clear  
Wind Chill: 32°   Ceiling: Unl
Heat Index: 38°   Visibility: 10mi
Dew Point: 11°   Wind: 8mph
Humidity: 33%   Direction: 260°W
Pressure: 30.4"   Gusts: NA
Location:  40.7621°N, 73.9496°W
Report Text: KNYC 221651Z AUTO 26007KT 220V310 10SM CLR 03/M12 A3040 RMK AO2 SLP286 T00331117 $
Loading
Personal Weather Stations






























Interactive Weather Map New forecast layout! Learn more

10-Day Weather Forecast

Advertisements
Track Severe Weather on mobile